Time;durP1;ratioP1;P1;durP2;ratioP2;P2;SDS_P1;SDS_P2;PMS_P1;PMS_P2;Temp;Humidity;BMP_temperature;BMP_pressure;BME280_temperature;BME280_humidity;BME280_pressure;Samples;Min_cycle;Max_cycle;Signal;HPM_P1;HPM_P2
2022/01/30 00:00:31;;;;;;;5.03;0.95;;;;;;;6.24;100.00;98419.66;5059548;28;20449;-91
2022/01/30 00:03:16;;;;;;;8.48;1.42;;;;;;;6.14;100.00;98457.22;5058634;28;20044;-91
2022/01/30 00:06:00;;;;;;;4.00;1.40;;;;;;;6.14;100.00;98462.44;5044591;28;20041;-87
2022/01/30 00:08:45;;;;;;;7.18;1.58;;;;;;;6.26;100.00;98468.13;5058570;28;20041;-88
2022/01/30 00:11:34;;;;;;;7.00;1.50;;;;;;;6.14;100.00;98431.25;5058528;28;20094;-88
2022/01/30 00:14:21;;;;;;;6.90;1.42;;;;;;;6.12;100.00;98490.25;5058634;28;20426;-86
2022/01/30 00:17:14;;;;;;;8.32;1.35;;;;;;;6.04;100.00;98509.47;5058583;28;20421;-90
2022/01/30 00:20:04;;;;;;;6.40;1.75;;;;;;;6.00;100.00;98494.88;5058427;28;20422;-89
2022/01/30 00:23:08;;;;;;;8.68;1.13;;;;;;;5.83;100.00;98491.84;5058444;28;20087;-86
2022/01/30 00:25:55;;;;;;;9.50;1.95;;;;;;;5.70;100.00;98501.72;5058185;28;20045;-89
2022/01/30 00:28:40;;;;;;;8.73;1.95;;;;;;;5.59;100.00;98512.38;5058064;28;20114;-88
2022/01/30 00:31:27;;;;;;;6.63;1.40;;;;;;;5.57;100.00;98498.56;5057988;28;20048;-88
2022/01/30 00:34:11;;;;;;;8.57;1.25;;;;;;;5.47;100.00;98486.72;5057785;28;20048;-88
2022/01/30 00:36:55;;;;;;;9.85;1.25;;;;;;;5.58;100.00;98497.69;5058533;28;20071;-87
2022/01/30 00:39:40;;;;;;;10.65;1.48;;;;;;;5.55;100.00;98486.50;5057953;28;20053;-88
2022/01/30 00:42:24;;;;;;;6.80;1.58;;;;;;;5.58;100.00;98505.47;5058560;28;20056;-86
2022/01/30 00:45:09;;;;;;;9.15;2.50;;;;;;;5.54;100.00;98509.03;5043787;28;20036;-87
2022/01/30 00:47:54;;;;;;;9.13;1.58;;;;;;;5.63;100.00;98508.81;5057715;28;20411;-89
2022/01/30 00:50:39;;;;;;;12.40;3.28;;;;;;;5.67;100.00;98513.94;5057688;28;20052;-87
2022/01/30 00:53:23;;;;;;;11.40;2.25;;;;;;;5.66;100.00;98528.66;5043890;28;20141;-85
2022/01/30 00:56:08;;;;;;;9.00;2.20;;;;;;;5.55;100.00;98525.47;5043549;28;20049;-88
2022/01/30 00:58:53;;;;;;;13.18;2.90;;;;;;;5.23;100.00;98521.94;5043624;28;20472;-88
2022/01/30 01:01:37;;;;;;;8.10;1.65;;;;;;;5.09;100.00;98535.22;5058199;28;20045;-87
2022/01/30 01:04:21;;;;;;;9.10;2.28;;;;;;;4.99;100.00;98535.47;5043078;28;20103;-90
2022/01/30 01:07:12;;;;;;;16.33;3.53;;;;;;;4.92;100.00;98535.63;5057463;28;20372;-87
2022/01/30 01:10:05;;;;;;;11.38;2.40;;;;;;;4.88;100.00;98526.19;5057335;28;20037;-92
2022/01/30 01:25:03;;;;;;;15.57;2.67;;;;;;;4.78;100.00;98523.84;5057139;28;20048;-89
2022/01/30 01:27:47;;;;;;;8.30;1.95;;;;;;;4.82;100.00;98523.75;5057092;28;20037;-87
2022/01/30 01:30:32;;;;;;;9.68;1.98;;;;;;;4.84;100.00;98511.59;5057143;28;20353;-86
2022/01/30 01:33:17;;;;;;;9.48;2.72;;;;;;;5.01;100.00;98524.19;5057769;28;20044;-87
2022/01/30 01:36:01;;;;;;;16.75;2.95;;;;;;;5.06;100.00;98511.94;5056887;28;20045;-90
2022/01/30 01:38:46;;;;;;;15.70;2.88;;;;;;;4.79;100.00;98499.59;5056800;28;20049;-87
2022/01/30 01:41:32;;;;;;;12.25;2.03;;;;;;;4.65;100.00;98492.13;5056661;28;20037;-87
2022/01/30 01:44:21;;;;;;;11.57;2.25;;;;;;;4.65;100.00;98485.22;5056633;28;20421;-88
2022/01/30 01:47:08;;;;;;;11.18;1.67;;;;;;;4.73;100.00;98490.22;5056791;28;20068;-88
2022/01/30 01:49:53;;;;;;;14.57;1.83;;;;;;;4.83;100.00;98460.56;5057482;28;20124;-85
2022/01/30 01:52:37;;;;;;;8.95;1.50;;;;;;;4.89;100.00;98455.25;5042541;28;20037;-89
2022/01/30 01:55:21;;;;;;;10.55;1.98;;;;;;;5.00;100.00;98460.16;5056712;28;20041;-91
2022/01/30 01:58:06;;;;;;;11.65;2.15;;;;;;;4.86;100.00;98457.06;5056354;28;20187;-91
2022/01/30 02:01:17;;;;;;;10.88;1.60;;;;;;;4.78;100.00;98466.78;5045830;28;20430;-88
2022/01/30 02:04:01;;;;;;;10.77;2.72;;;;;;;4.74;100.00;98465.13;5056393;28;20045;-91
2022/01/30 02:06:46;;;;;;;11.55;2.05;;;;;;;4.65;100.00;98463.59;5057052;28;20041;-90
2022/01/30 02:09:33;;;;;;;11.25;1.77;;;;;;;4.67;100.00;98461.81;5056709;28;20128;-89
2022/01/30 02:12:30;;;;;;;13.18;2.90;;;;;;;4.54;100.00;98456.03;5056406;28;20421;-91
2022/01/30 02:24:20;;;;;;;15.68;2.63;;;;;;;4.55;100.00;98412.81;5056605;28;20045;-90
2022/01/30 02:27:05;;;;;;;11.23;1.52;;;;;;;4.38;100.00;98382.94;5041820;28;20068;-88
2022/01/30 02:29:51;;;;;;;11.77;1.95;;;;;;;4.53;100.00;98393.84;5041963;28;20045;-87
2022/01/30 02:32:35;;;;;;;8.10;1.88;;;;;;;4.71;100.00;98401.19;5041956;28;20069;-87
2022/01/30 02:35:20;;;;;;;10.32;1.58;;;;;;;4.82;100.00;98396.63;5056695;28;20037;-89
2022/01/30 02:38:04;;;;;;;13.45;1.92;;;;;;;4.85;100.00;98404.31;5055657;28;20044;-87
2022/01/30 02:40:52;;;;;;;11.82;2.03;;;;;;;4.87;100.00;98402.53;5055643;28;20357;-88
2022/01/30 02:43:47;;;;;;;12.85;1.95;;;;;;;4.92;100.00;98373.88;5055635;28;20045;-89
2022/01/30 02:46:35;;;;;;;10.73;1.25;;;;;;;4.89;100.00;98389.53;5041637;28;20037;-87
2022/01/30 02:52:06;;;;;;;9.90;1.63;;;;;;;4.99;100.00;98384.97;5055544;28;20098;-89
2022/01/30 02:54:52;;;;;;;14.68;2.30;;;;;;;5.08;100.00;98423.66;5055536;28;20388;-88
2022/01/30 02:57:36;;;;;;;16.38;2.45;;;;;;;5.08;100.00;98413.28;5041472;28;20098;-86
2022/01/30 03:00:21;;;;;;;11.13;2.33;;;;;;;5.06;100.00;98402.09;5055610;28;20037;-86
2022/01/30 03:03:06;;;;;;;10.35;1.67;;;;;;;5.02;100.00;98409.09;5055339;28;20048;-88
2022/01/30 03:05:50;;;;;;;7.03;1.30;;;;;;;4.97;100.00;98404.91;5055533;28;20356;-89
2022/01/30 03:08:35;;;;;;;11.85;1.40;;;;;;;5.13;100.00;98419.19;5055419;28;20041;-89
2022/01/30 03:11:19;;;;;;;10.15;1.58;;;;;;;5.13;100.00;98407.09;5056180;28;20037;-90
2022/01/30 03:14:05;;;;;;;10.25;1.77;;;;;;;4.95;100.00;98394.56;5055142;28;20041;-91
2022/01/30 03:16:50;;;;;;;10.20;2.40;;;;;;;4.89;100.00;98390.38;5041232;28;20045;-90
2022/01/30 03:19:34;;;;;;;10.63;1.67;;;;;;;5.04;100.00;98367.56;5055201;28;20037;-89
2022/01/30 03:22:19;;;;;;;11.65;2.05;;;;;;;5.03;100.00;98351.09;5055215;28;20119;-88
2022/01/30 03:25:04;;;;;;;16.13;1.77;;;;;;;4.92;100.00;98369.53;5041236;28;20438;-90
2022/01/30 03:28:08;;;;;;;13.30;1.58;;;;;;;4.96;100.00;98362.53;5057222;28;20043;-87
2022/01/30 03:31:02;;;;;;;10.02;1.60;;;;;;;4.86;100.00;98345.50;5059213;28;20056;-88
2022/01/30 03:33:54;;;;;;;10.27;1.38;;;;;;;5.08;100.00;98369.16;5046153;28;20065;-87
2022/01/30 03:36:50;;;;;;;10.40;1.65;;;;;;;4.91;100.00;98357.47;5059332;28;20052;-86
2022/01/30 03:39:35;;;;;;;11.05;1.45;;;;;;;5.02;100.00;98362.38;5045338;28;20114;-87
2022/01/30 03:42:21;;;;;;;13.90;2.08;;;;;;;5.05;100.00;98354.53;5045060;28;20365;-91
2022/01/30 03:45:06;;;;;;;11.07;1.73;;;;;;;5.08;100.00;98336.28;5044937;28;20122;-88
2022/01/30 03:47:55;;;;;;;8.23;1.25;;;;;;;4.94;100.00;98340.97;5044913;28;20037;-89
2022/01/30 03:50:44;;;;;;;12.02;1.73;;;;;;;4.99;100.00;98362.47;5045426;28;20060;-87
2022/01/30 03:53:31;;;;;;;13.73;3.78;;;;;;;5.02;100.00;98341.63;5044989;28;20048;-89
2022/01/30 03:56:16;;;;;;;11.85;1.63;;;;;;;5.11;100.00;98336.19;5058779;28;20426;-89
2022/01/30 03:59:01;;;;;;;12.45;2.72;;;;;;;5.18;100.00;98328.25;5058762;28;20331;-88
2022/01/30 04:01:46;;;;;;;14.57;2.03;;;;;;;5.15;100.00;98316.19;5058734;28;20064;-93
2022/01/30 04:04:33;;;;;;;11.52;2.53;;;;;;;5.02;100.00;98326.06;5058977;28;20418;-90
2022/01/30 04:07:20;;;;;;;11.27;1.65;;;;;;;5.15;100.00;98324.00;5058705;28;20037;-87
2022/01/30 04:10:30;;;;;;;13.93;1.88;;;;;;;5.24;100.00;98331.53;5047858;28;20045;-91
2022/01/30 04:13:28;;;;;;;10.23;1.92;;;;;;;5.24;100.00;98326.34;5058504;28;20033;-90
2022/01/30 04:16:31;;;;;;;10.98;1.55;;;;;;;5.16;100.00;98321.34;5059169;28;20048;-90
2022/01/30 04:19:35;;;;;;;8.40;1.50;;;;;;;5.24;100.00;98318.56;5059200;28;20041;-87
2022/01/30 04:22:29;;;;;;;6.85;1.30;;;;;;;5.14;100.00;98317.94;5059079;28;20279;-88
2022/01/30 04:25:31;;;;;;;5.97;1.00;;;;;;;5.21;100.00;98292.66;5058441;28;20426;-88
2022/01/30 04:28:45;;;;;;;11.13;2.08;;;;;;;5.23;100.00;98322.06;5058098;28;20061;-92
2022/01/30 04:31:56;;;;;;;9.27;1.70;;;;;;;5.15;100.00;98306.66;5058199;28;20349;-90
2022/01/30 04:34:43;;;;;;;14.65;2.03;;;;;;;5.29;100.00;98264.75;5058078;28;20083;-88
2022/01/30 05:00:33;;;;;;;9.55;1.60;;;;;;;4.78;100.00;98280.00;5078202;28;20044;-93
2022/01/30 05:06:53;;;;;;;8.43;1.55;;;;;;;4.55;100.00;98271.06;5063411;28;20082;-86
2022/01/30 05:09:55;;;;;;;9.30;2.00;;;;;;;4.50;100.00;98272.06;5078051;28;20381;-88
2022/01/30 05:13:17;;;;;;;9.50;1.50;;;;;;;4.59;100.00;98254.53;5076505;28;20063;-88
2022/01/30 05:16:11;;;;;;;13.43;1.83;;;;;;;4.51;100.00;98264.22;5075688;28;20040;-87
2022/01/30 05:19:15;;;;;;;14.68;2.10;;;;;;;4.58;100.00;98290.84;5075424;28;20045;-89
2022/01/30 05:22:15;;;;;;;7.97;1.88;;;;;;;4.79;100.00;98268.72;5075639;28;20052;-92
2022/01/30 05:25:12;;;;;;;11.00;1.35;;;;;;;4.90;100.00;98279.66;5075781;28;20036;-88
2022/01/30 05:28:06;;;;;;;10.00;2.17;;;;;;;4.89;100.00;98301.31;5075574;28;20452;-87
2022/01/30 05:31:08;;;;;;;8.55;1.45;;;;;;;4.80;100.00;98289.44;5065568;28;20041;-90
2022/01/30 05:33:59;;;;;;;9.07;1.42;;;;;;;4.70;100.00;98298.34;5077123;28;20437;-91
2022/01/30 05:36:50;;;;;;;10.07;1.55;;;;;;;4.70;100.00;98321.69;5064002;28;20037;-89
2022/01/30 05:39:53;;;;;;;7.40;1.60;;;;;;;4.71;100.00;98300.03;5076969;28;20141;-88
2022/01/30 05:43:03;;;;;;;16.45;2.25;;;;;;;4.42;100.00;98303.38;5077065;28;20113;-91
2022/01/30 05:46:14;;;;;;;15.40;3.03;;;;;;;4.16;100.00;98299.66;5077642;28;20052;-91
2022/01/30 05:49:23;;;;;;;13.25;1.90;;;;;;;3.94;100.00;98294.09;5066012;28;20352;-90
2022/01/30 05:52:34;;;;;;;14.18;2.15;;;;;;;3.77;100.00;98283.25;5077159;28;20041;-92
2022/01/30 05:55:31;;;;;;;12.77;1.67;;;;;;;3.85;100.00;98277.91;5076751;28;20087;-91
2022/01/30 05:58:16;;;;;;;8.13;1.02;;;;;;;3.95;100.00;98272.47;5062529;28;20436;-92
2022/01/30 06:01:15;;;;;;;13.52;1.63;;;;;;;3.85;100.00;98255.44;5076412;28;20040;-89
2022/01/30 06:03:59;;;;;;;13.57;1.85;;;;;;;3.87;100.00;98255.41;5076332;28;20056;-91
2022/01/30 06:06:50;;;;;;;13.88;2.10;;;;;;;3.94;100.00;98257.81;5076345;28;20041;-89
2022/01/30 06:09:34;;;;;;;9.45;1.60;;;;;;;4.17;100.00;98244.34;5076468;28;20408;-91
2022/01/30 06:12:19;;;;;;;8.25;1.60;;;;;;;4.49;100.00;98239.25;5076701;28;20040;-92
2022/01/30 06:15:03;;;;;;;13.40;1.73;;;;;;;4.47;100.00;98228.91;5076689;28;20119;-89
2022/01/30 06:17:48;;;;;;;12.93;1.80;;;;;;;4.44;100.00;98249.72;5062413;28;20043;-85
2022/01/30 06:21:10;;;;;;;11.02;2.17;;;;;;;4.34;100.00;98271.59;5075174;28;20040;-91
2022/01/30 06:24:07;;;;;;;7.68;0.80;;;;;;;4.46;100.00;98302.41;5062996;28;20056;-87
2022/01/30 06:27:10;;;;;;;7.55;1.10;;;;;;;4.30;100.00;98277.75;5076243;28;20044;-90
2022/01/30 06:30:21;;;;;;;3.25;0.85;;;;;;;4.26;100.00;98250.16;5076617;28;20040;-90
2022/01/30 06:33:38;;;;;;;160.88;58.97;;;;;;;4.25;100.00;98245.88;5065825;28;20048;-91
2022/01/30 06:36:34;;;;;;;154.55;48.65;;;;;;;4.24;100.00;98171.63;5076586;28;20044;-87
2022/01/30 06:39:39;;;;;;;144.30;47.90;;;;;;;4.19;100.00;98250.34;5076015;28;20048;-91
2022/01/30 06:42:33;;;;;;;24.60;8.30;;;;;;;4.12;100.00;98237.53;5075751;28;20044;-87
2022/01/30 06:45:36;;;;;;;8.40;1.23;;;;;;;4.10;100.00;98231.56;5063786;28;20055;-93
2022/01/30 06:48:49;;;;;;;5.82;1.10;;;;;;;4.11;100.00;98225.50;5077304;28;20059;-90
2022/01/30 06:51:53;;;;;;;13.43;3.75;;;;;;;4.03;100.00;98237.75;5076299;28;20049;-91
2022/01/30 06:54:56;;;;;;;7.15;2.42;;;;;;;3.97;100.00;98224.06;5076729;28;20056;-90
2022/01/30 06:57:59;;;;;;;12.18;3.03;;;;;;;3.85;100.00;98215.75;5076140;28;20064;-92
2022/01/30 07:01:03;;;;;;;10.43;1.10;;;;;;;3.87;100.00;98214.81;5075772;28;20052;-88
2022/01/30 07:04:06;;;;;;;10.68;2.38;;;;;;;3.86;100.00;98233.81;5075538;28;20037;-88
2022/01/30 07:07:17;;;;;;;7.47;1.38;;;;;;;3.87;100.00;98214.81;5076573;28;20044;-91
2022/01/30 07:10:06;;;;;;;6.07;1.98;;;;;;;3.88;100.00;98221.69;5076153;28;20416;-88
2022/01/30 07:12:51;;;;;;;7.80;1.60;;;;;;;3.89;100.00;98222.53;5075905;28;20063;-92
2022/01/30 07:15:35;;;;;;;7.78;1.35;;;;;;;3.78;100.00;98234.91;5061756;28;20368;-90
2022/01/30 07:18:19;;;;;;;6.65;0.73;;;;;;;3.89;100.00;98235.50;5075535;28;20349;-90
2022/01/30 07:21:04;;;;;;;3.53;0.93;;;;;;;3.90;100.00;98234.59;5076240;28;20036;-92
2022/01/30 07:23:48;;;;;;;6.38;1.13;;;;;;;3.95;100.00;98232.78;5075524;28;20047;-92
2022/01/30 07:26:33;;;;;;;3.03;0.73;;;;;;;3.87;100.00;98232.97;5075727;28;20105;-91
2022/01/30 07:29:17;;;;;;;5.00;1.40;;;;;;;4.02;100.00;98236.06;5076385;28;20044;-92
2022/01/30 07:32:01;;;;;;;6.97;1.20;;;;;;;3.95;100.00;98225.00;5076645;28;20048;-88
2022/01/30 07:34:50;;;;;;;8.52;1.38;;;;;;;4.17;100.00;98240.88;5075472;28;20044;-91
2022/01/30 07:37:35;;;;;;;7.90;1.60;;;;;;;4.06;100.00;98214.38;5076605;28;20048;-89
2022/01/30 07:40:19;;;;;;;9.93;2.88;;;;;;;3.98;100.00;98201.59;5075390;28;20040;-92
2022/01/30 07:43:04;;;;;;;10.43;2.55;;;;;;;4.08;100.00;98218.63;5060723;28;20144;-92
2022/01/30 07:45:50;;;;;;;10.40;2.53;;;;;;;4.01;100.00;98185.16;5061676;28;20044;-90
2022/01/30 07:48:35;;;;;;;44.28;19.17;;;;;;;4.27;100.00;98206.06;5076498;28;20036;-90
2022/01/30 07:51:19;;;;;;;10.23;2.25;;;;;;;4.37;100.00;98196.34;5075163;28;20051;-91
2022/01/30 07:54:03;;;;;;;122.05;57.22;;;;;;;4.18;100.00;98196.78;5076289;28;20048;-91
2022/01/30 07:56:48;;;;;;;77.60;31.23;;;;;;;4.32;100.00;98193.00;5075586;28;20051;-88
2022/01/30 07:59:33;;;;;;;18.40;9.77;;;;;;;4.39;100.00;98210.97;5076516;28;20056;-88
2022/01/30 08:02:17;;;;;;;22.55;5.53;;;;;;;4.64;100.00;98210.31;5061356;28;20045;-90
2022/01/30 08:05:02;;;;;;;49.13;30.70;;;;;;;4.66;100.00;98196.41;5076288;28;20075;-86
2022/01/30 08:07:46;;;;;;;76.10;47.50;;;;;;;4.60;100.00;98187.94;5075041;28;20041;-91
2022/01/30 08:10:31;;;;;;;36.08;21.30;;;;;;;4.69;100.00;98167.81;5074576;28;20398;-89
2022/01/30 08:13:16;;;;;;;43.53;26.77;;;;;;;4.72;100.00;98190.22;5075249;28;20037;-90
2022/01/30 08:16:01;;;;;;;18.75;7.82;;;;;;;4.75;100.00;98204.84;5078492;28;20040;-87
2022/01/30 08:18:46;;;;;;;220.93;76.63;;;;;;;4.77;100.00;98213.44;5078151;28;20036;-90
2022/01/30 08:21:30;;;;;;;14.65;4.20;;;;;;;4.70;100.00;98197.19;5078258;28;20040;-91
2022/01/30 08:24:15;;;;;;;10.63;3.65;;;;;;;4.84;100.00;98182.09;5077684;28;20044;-86
2022/01/30 08:26:59;;;;;;;15.82;8.23;;;;;;;4.76;100.00;98198.75;5077799;28;20345;-87
2022/01/30 08:29:43;;;;;;;68.22;26.08;;;;;;;4.75;100.00;98238.56;5063038;28;20616;-88
2022/01/30 08:32:27;;;;;;;19.67;5.80;;;;;;;4.60;100.00;98224.25;5077596;28;20120;-89
2022/01/30 08:35:14;;;;;;;13.65;4.38;;;;;;;4.78;100.00;98254.06;5062676;28;20044;-88
2022/01/30 08:37:59;;;;;;;17.30;3.30;;;;;;;4.66;100.00;98261.25;5077386;28;20037;-90
2022/01/30 08:40:47;;;;;;;16.95;6.32;;;;;;;4.50;100.00;98259.09;5062387;28;20372;-89
2022/01/30 08:43:32;;;;;;;14.25;4.55;;;;;;;4.48;100.00;98272.09;5076777;28;20348;-88
2022/01/30 08:46:17;;;;;;;15.75;5.68;;;;;;;4.21;100.00;98282.22;5077035;28;20126;-90
2022/01/30 08:49:01;;;;;;;18.55;6.32;;;;;;;4.19;100.00;98281.44;5064182;28;20041;-88
2022/01/30 08:51:46;;;;;;;14.20;3.40;;;;;;;4.25;100.00;98290.78;5079454;28;20044;-91
2022/01/30 08:54:31;;;;;;;16.95;5.75;;;;;;;4.17;100.00;98300.50;5078181;28;20089;-90
2022/01/30 08:57:15;;;;;;;19.85;3.90;;;;;;;4.20;100.00;98297.84;5078498;28;20036;-92
2022/01/30 09:00:00;;;;;;;12.25;3.17;;;;;;;4.32;100.00;98314.81;5063901;28;20041;-92
2022/01/30 09:02:45;;;;;;;9.95;2.50;;;;;;;4.20;100.00;98301.28;5079049;28;20422;-90
2022/01/30 09:05:30;;;;;;;18.38;4.10;;;;;;;4.30;100.00;98299.31;5064004;28;20067;-87
2022/01/30 09:08:15;;;;;;;12.13;5.07;;;;;;;4.39;100.00;98306.03;5078023;28;20041;-89
2022/01/30 09:11:00;;;;;;;25.50;9.30;;;;;;;4.44;100.00;98311.94;5077704;28;20421;-92
2022/01/30 09:13:44;;;;;;;16.33;6.40;;;;;;;4.48;100.00;98292.81;5077823;28;20083;-87
2022/01/30 09:16:29;;;;;;;29.00;12.90;;;;;;;4.74;100.00;98304.28;5077656;28;20037;-92
2022/01/30 09:19:14;;;;;;;19.67;8.07;;;;;;;4.64;100.00;98316.63;5077918;28;20044;-91
2022/01/30 09:21:59;;;;;;;19.70;6.35;;;;;;;4.88;100.00;98341.97;5077479;28;20052;-91
2022/01/30 09:24:44;;;;;;;20.67;5.57;;;;;;;4.88;100.00;98310.84;5078343;28;20048;-89
2022/01/30 09:27:29;;;;;;;22.38;11.10;;;;;;;4.99;100.00;98339.09;5076996;28;20041;-88
2022/01/30 09:30:13;;;;;;;32.80;12.25;;;;;;;5.15;100.00;98324.84;5077626;28;20037;-89
2022/01/30 09:32:57;;;;;;;14.63;6.03;;;;;;;5.23;100.00;98336.75;5075718;28;20074;-88
2022/01/30 09:35:42;;;;;;;8.65;2.83;;;;;;;5.23;100.00;98344.53;5075389;28;20040;-90
2022/01/30 09:38:26;;;;;;;10.13;3.17;;;;;;;4.86;100.00;98315.22;5075470;28;20469;-89
2022/01/30 09:41:12;;;;;;;13.95;4.72;;;;;;;5.13;100.00;98351.72;5061034;28;20033;-87
2022/01/30 09:44:00;;;;;;;12.35;3.17;;;;;;;5.11;100.00;98354.38;5075077;28;20036;-89
2022/01/30 09:46:45;;;;;;;15.10;4.07;;;;;;;5.10;100.00;98359.56;5062355;28;20392;-89
2022/01/30 09:49:30;;;;;;;13.50;3.42;;;;;;;4.91;100.00;98375.63;5078030;28;20115;-89
2022/01/30 09:52:14;;;;;;;18.73;6.03;;;;;;;5.02;100.00;98369.31;5075229;28;20090;-86
2022/01/30 09:54:59;;;;;;;15.20;3.78;;;;;;;4.99;100.00;98382.38;5075069;28;20360;-88
2022/01/30 09:57:44;;;;;;;20.73;5.45;;;;;;;4.93;100.00;98381.63;5046581;28;20052;-88
2022/01/30 10:00:28;;;;;;;16.95;5.10;;;;;;;4.97;100.00;98386.72;5074895;28;20051;-87
2022/01/30 10:03:20;;;;;;;20.02;4.72;;;;;;;4.98;100.00;98368.53;5074598;28;20036;-86
2022/01/30 10:06:15;;;;;;;13.20;3.85;;;;;;;4.98;100.00;98397.09;5075072;28;20124;-88
2022/01/30 10:09:21;;;;;;;21.90;5.18;;;;;;;4.96;100.00;98398.00;5076506;28;20040;-87
2022/01/30 10:12:28;;;;;;;30.13;10.07;;;;;;;4.97;100.00;98374.59;5077153;28;20040;-87
2022/01/30 10:15:16;;;;;;;61.05;20.90;;;;;;;5.08;100.00;98364.81;5062371;28;20044;-89
2022/01/30 10:18:04;;;;;;;20.85;6.47;;;;;;;5.07;100.00;98359.66;5062556;28;20116;-87
2022/01/30 10:20:49;;;;;;;18.00;4.47;;;;;;;5.19;100.00;98364.53;5061988;28;20044;-86
2022/01/30 10:23:36;;;;;;;17.88;3.92;;;;;;;5.20;100.00;98371.47;5061956;28;20130;-87
2022/01/30 10:26:31;;;;;;;17.88;5.63;;;;;;;5.15;100.00;98361.16;5076069;28;20123;-86
2022/01/30 10:29:18;;;;;;;19.08;3.65;;;;;;;5.18;100.00;98372.38;5076674;28;20421;-87
2022/01/30 10:32:10;;;;;;;11.38;2.65;;;;;;;5.09;100.00;98355.28;5076484;28;20048;-87
2022/01/30 10:35:12;;;;;;;16.98;4.78;;;;;;;5.24;100.00;98374.81;5076579;28;20040;-87
2022/01/30 10:37:57;;;;;;;15.70;5.18;;;;;;;5.09;100.00;98337.97;5061146;28;20498;-86
2022/01/30 10:40:55;;;;;;;21.77;4.90;;;;;;;5.21;100.00;98354.13;5076883;28;20051;-89
2022/01/30 10:44:00;;;;;;;24.30;5.05;;;;;;;5.13;100.00;98347.41;5076820;28;20044;-90
2022/01/30 10:46:49;;;;;;;24.10;5.97;;;;;;;5.18;100.00;98349.00;5075659;28;20060;-84
2022/01/30 10:49:44;;;;;;;16.80;4.05;;;;;;;4.94;100.00;98343.56;5076253;28;20147;-90
2022/01/30 10:52:31;;;;;;;22.05;7.35;;;;;;;4.81;100.00;98361.19;5076015;28;20044;-88
2022/01/30 10:55:16;;;;;;;15.80;3.95;;;;;;;4.88;100.00;98370.53;5076016;28;20059;-89
2022/01/30 10:58:01;;;;;;;19.08;4.50;;;;;;;4.85;100.00;98369.75;5076570;28;20086;-87
2022/01/30 11:00:55;;;;;;;16.98;4.70;;;;;;;4.67;100.00;98363.25;5076037;28;20040;-85
2022/01/30 11:03:51;;;;;;;18.23;3.75;;;;;;;4.67;100.00;98369.28;5047368;28;20053;-87
2022/01/30 11:06:39;;;;;;;21.08;7.97;;;;;;;4.65;100.00;98365.91;5075815;28;20040;-87
2022/01/30 11:09:48;;;;;;;19.88;4.90;;;;;;;4.63;100.00;98369.41;5061401;28;20368;-90
2022/01/30 11:12:39;;;;;;;13.52;4.18;;;;;;;4.53;100.00;98392.13;5075489;28;20121;-86
2022/01/30 11:18:14;;;;;;;22.52;5.85;;;;;;;4.29;100.00;98379.69;5075701;28;20051;-89
2022/01/30 11:20:59;;;;;;;46.05;18.77;;;;;;;4.35;100.00;98397.69;5075817;28;20044;-88
2022/01/30 11:23:45;;;;;;;18.40;3.92;;;;;;;4.30;100.00;98392.63;5076176;28;20050;-89
2022/01/30 11:26:30;;;;;;;18.52;4.20;;;;;;;4.34;100.00;98407.22;5076123;28;20040;-87
2022/01/30 11:29:20;;;;;;;22.23;8.30;;;;;;;4.26;100.00;98416.03;5075266;28;20044;-86
2022/01/30 11:32:06;;;;;;;13.80;3.53;;;;;;;4.17;100.00;98417.13;5076554;28;20052;-90
2022/01/30 11:34:50;;;;;;;16.10;5.13;;;;;;;4.04;100.00;98418.25;5061125;28;20059;-87
2022/01/30 11:37:37;;;;;;;14.63;4.45;;;;;;;3.93;100.00;98424.53;5075199;28;20132;-87
2022/01/30 11:40:22;;;;;;;15.98;3.72;;;;;;;3.97;100.00;98440.84;5075768;28;20049;-88
2022/01/30 11:43:09;;;;;;;20.92;4.57;;;;;;;3.95;100.00;98430.50;5075992;28;20349;-90
2022/01/30 11:46:14;;;;;;;35.38;6.97;;;;;;;3.95;100.00;98445.19;5075426;28;20040;-88
2022/01/30 11:49:13;;;;;;;37.45;10.00;;;;;;;4.08;100.00;98444.06;5062078;28;20041;-90
2022/01/30 11:51:57;;;;;;;22.20;4.13;;;;;;;3.90;100.00;98439.25;5079428;28;20106;-88
2022/01/30 11:54:50;;;;;;;14.88;4.22;;;;;;;4.05;100.00;98449.31;5078317;28;20044;-87
2022/01/30 11:57:41;;;;;;;22.10;4.47;;;;;;;4.09;100.00;98438.00;5078063;28;20434;-87
2022/01/30 12:00:46;;;;;;;33.53;7.40;;;;;;;3.97;100.00;98462.44;5077693;28;20045;-89
2022/01/30 12:03:32;;;;;;;47.97;17.50;;;;;;;3.96;100.00;98434.81;5063315;28;20051;-89
2022/01/30 12:06:20;;;;;;;23.50;4.10;;;;;;;4.06;100.00;98476.06;5077277;28;20045;-88
2022/01/30 12:09:20;;;;;;;35.00;10.90;;;;;;;4.04;100.00;98475.28;5077985;28;20036;-89
2022/01/30 12:12:06;;;;;;;24.63;6.57;;;;;;;3.80;100.00;98471.41;5064113;28;20051;-86
2022/01/30 12:14:51;;;;;;;27.85;7.57;;;;;;;3.89;100.00;98486.75;5078908;28;20036;-86
2022/01/30 12:17:49;;;;;;;24.27;7.40;;;;;;;3.88;100.00;98488.50;5079554;28;20068;-89
2022/01/30 12:21:08;;;;;;;34.88;8.98;;;;;;;3.91;100.00;98467.72;5079140;28;20451;-88
2022/01/30 12:23:52;;;;;;;50.05;15.88;;;;;;;3.96;100.00;98484.06;5078770;28;20417;-90
2022/01/30 12:26:54;;;;;;;33.55;6.10;;;;;;;4.12;100.00;98497.53;5079171;28;20577;-88
2022/01/30 12:29:43;;;;;;;25.23;3.88;;;;;;;4.07;100.00;98480.41;5079114;28;20322;-89
2022/01/30 12:32:31;;;;;;;24.52;5.32;;;;;;;4.14;100.00;98490.59;5078927;28;20044;-90
2022/01/30 12:35:15;;;;;;;32.45;8.50;;;;;;;4.16;100.00;98501.78;5079513;28;20130;-88
2022/01/30 12:38:00;;;;;;;50.75;14.63;;;;;;;4.32;100.00;98506.66;5079074;28;20345;-88
2022/01/30 12:40:47;;;;;;;54.05;19.70;;;;;;;4.42;100.00;98547.94;5079509;28;20163;-87
2022/01/30 12:43:31;;;;;;;31.83;8.85;;;;;;;4.41;100.00;98503.88;5078702;28;20048;-90
2022/01/30 12:46:16;;;;;;;22.70;3.85;;;;;;;4.41;100.00;98511.66;5078355;28;20120;-90
2022/01/30 12:49:13;;;;;;;27.77;5.88;;;;;;;4.50;100.00;98531.34;5078695;28;20041;-87
2022/01/30 12:52:01;;;;;;;27.38;6.03;;;;;;;4.54;100.00;98543.38;5078671;28;20106;-88
2022/01/30 12:54:49;;;;;;;15.80;2.95;;;;;;;4.65;100.00;98538.81;5063846;28;20040;-89
2022/01/30 12:57:35;;;;;;;27.77;5.97;;;;;;;4.59;100.00;98531.16;5063585;28;20045;-89
2022/01/30 13:00:19;;;;;;;26.45;5.50;;;;;;;4.66;100.00;98548.31;5076740;28;20037;-90
2022/01/30 13:03:04;;;;;;;27.63;5.35;;;;;;;4.72;100.00;98563.75;5078425;28;20040;-86
2022/01/30 13:05:50;;;;;;;25.13;3.55;;;;;;;4.73;100.00;98562.00;5077680;28;20044;-89
2022/01/30 13:08:51;;;;;;;24.33;4.88;;;;;;;4.79;100.00;98567.91;5077649;28;20487;-85
2022/01/30 13:11:37;;;;;;;25.45;5.40;;;;;;;4.82;100.00;98575.63;5077858;28;20036;-89
2022/01/30 13:14:30;;;;;;;26.38;6.55;;;;;;;4.76;100.00;98539.44;5078547;28;20044;-90
2022/01/30 13:17:15;;;;;;;23.85;5.30;;;;;;;4.81;100.00;98560.06;5078511;28;20059;-88
2022/01/30 13:20:00;;;;;;;26.38;4.82;;;;;;;4.83;100.00;98576.47;5077522;28;20041;-88
2022/01/30 13:22:45;;;;;;;23.15;6.22;;;;;;;4.88;100.00;98570.31;5077246;28;20128;-89
2022/01/30 13:25:29;;;;;;;27.45;7.15;;;;;;;4.93;100.00;98586.63;5078625;28;20056;-89
2022/01/30 13:28:20;;;;;;;25.05;6.28;;;;;;;5.05;100.00;98603.66;5078276;28;20041;-87
2022/01/30 13:31:14;;;;;;;18.95;5.40;;;;;;;5.06;100.00;98599.31;5077152;28;20052;-89
2022/01/30 13:34:16;;;;;;;21.60;4.97;;;;;;;4.92;100.00;98620.41;5077132;28;20032;-87
2022/01/30 13:37:10;;;;;;;20.88;4.82;;;;;;;5.09;100.00;98615.69;5077987;28;20078;-87
2022/01/30 13:40:10;;;;;;;29.35;7.72;;;;;;;5.14;100.00;98607.81;5077488;28;20049;-87
2022/01/30 13:43:03;;;;;;;23.73;6.43;;;;;;;5.21;100.00;98621.50;5077538;28;20044;-86
2022/01/30 13:48:34;;;;;;;22.90;6.00;;;;;;;5.21;100.00;98647.47;5078109;28;20068;-87
2022/01/30 13:51:22;;;;;;;19.35;5.82;;;;;;;5.16;100.00;98648.41;5077055;28;20044;-88
2022/01/30 13:54:10;;;;;;;36.90;7.30;;;;;;;5.34;100.00;98661.88;5076626;28;20037;-88
2022/01/30 13:57:07;;;;;;;33.42;6.65;;;;;;;5.14;100.00;98652.78;5077380;28;20449;-89
2022/01/30 14:00:08;;;;;;;21.30;5.43;;;;;;;5.15;100.00;98677.00;5076798;28;20417;-89
2022/01/30 14:03:01;;;;;;;34.15;8.45;;;;;;;5.18;100.00;98678.69;5076486;28;20047;-87
2022/01/30 14:05:46;;;;;;;27.23;7.80;;;;;;;5.29;100.00;98666.31;5062616;28;20044;-88
2022/01/30 14:08:30;;;;;;;28.35;7.13;;;;;;;5.34;100.00;98683.50;5076992;28;20047;-91